Terminal Aerodrome Forecast
Issued by NWS

Home | Current Version | Previous Version | Text Only | Print | Product List | Glossary On
Versions: 1 2 3 4 5 6 7 8 9 10 11 12 13 14 15 16
475
FTUS45 KMSO 270925 AAB
TAFSMN
TAF AMD
KSMN 270925Z 2709/2806 VRB06KT P6SM VCSH BKN100
     FM271000 VRB15G25KT 4SM -TSRA BKN050CB BKN100
     FM271300 VRB06KT P6SM VCSH BKN060 BKN100
     FM272000 30015G25KT 5SM -SHRA VCTS BKN050CB BKN100
     FM280300 31010G20KT P6SM VCSH BKN080
      AMD LTD TO CLD VIS AND WIND=

USA.gov is the U.S. government's official web portal to all federal, state and local government web resources and services.